createdAt,value
2024-05-09T00:00:36.358Z,2.67
2024-05-09T00:03:26.856Z,8.05
2024-05-09T00:05:53.818Z,2.22
2024-05-09T00:08:21.207Z,2.70
2024-05-09T00:10:48.270Z,2.60
2024-05-09T00:13:15.543Z,2.28
2024-05-09T00:15:42.364Z,2.72
2024-05-09T00:18:09.699Z,2.80
2024-05-09T00:20:40.007Z,3.00
2024-05-09T00:23:13.586Z,2.40
2024-05-09T00:25:44.400Z,2.70
2024-05-09T00:28:12.892Z,2.40
2024-05-09T00:30:40.329Z,2.47
2024-05-09T00:33:09.416Z,2.63
2024-05-09T00:35:38.420Z,2.45
2024-05-09T00:38:06.177Z,2.47
2024-05-09T00:40:40.414Z,2.47
2024-05-09T00:43:14.371Z,2.67
2024-05-09T00:45:42.801Z,2.67
2024-05-09T00:48:14.188Z,2.40
2024-05-09T00:50:44.182Z,2.45
2024-05-09T00:53:13.297Z,2.30
2024-05-09T00:55:40.496Z,2.53
2024-05-09T00:58:09.845Z,2.85
2024-05-09T01:00:39.995Z,2.55
2024-05-09T01:03:13.388Z,2.40
2024-05-09T01:05:42.422Z,2.70
2024-05-09T01:08:10.957Z,2.78
2024-05-09T01:10:38.114Z,2.78
2024-05-09T01:13:06.176Z,2.65
2024-05-09T01:15:34.843Z,3.10
2024-05-09T01:18:11.035Z,2.70
2024-05-09T01:20:42.490Z,3.25
2024-05-09T01:23:14.121Z,2.58
2024-05-09T01:25:42.724Z,2.55
2024-05-09T01:28:10.124Z,2.60
2024-05-09T01:30:37.927Z,2.80
2024-05-09T01:33:08.049Z,3.05
2024-05-09T01:35:36.992Z,2.70
2024-05-09T01:38:04.732Z,2.83
2024-05-09T01:40:37.402Z,3.72
2024-05-09T01:43:11.075Z,2.95
2024-05-09T01:45:39.492Z,2.75
2024-05-09T01:48:07.877Z,3.17
2024-05-09T01:50:39.603Z,3.58
2024-05-09T01:53:14.912Z,2.83
2024-05-09T01:55:42.966Z,3.03
2024-05-09T01:58:10.543Z,3.00
2024-05-09T02:00:41.084Z,2.80
2024-05-09T02:03:13.533Z,2.88
2024-05-09T02:05:43.708Z,2.70
2024-05-09T02:08:15.555Z,3.10
2024-05-09T02:10:44.125Z,3.30
2024-05-09T02:13:11.550Z,2.92
2024-05-09T02:15:38.721Z,2.70
2024-05-09T02:18:07.038Z,3.80
2024-05-09T02:20:38.822Z,3.58
2024-05-09T02:23:06.961Z,2.90
2024-05-09T02:25:34.482Z,3.40
2024-05-09T02:28:02.056Z,3.50
2024-05-09T02:30:38.251Z,3.28
2024-05-09T02:33:10.786Z,3.08
2024-05-09T02:35:39.641Z,3.00
2024-05-09T02:38:07.043Z,3.55
2024-05-09T02:40:37.865Z,3.13
2024-05-09T02:43:07.658Z,3.22
2024-05-09T02:45:34.710Z,3.85
2024-05-09T02:48:02.436Z,3.05
2024-05-09T02:50:36.896Z,3.72
2024-05-09T02:53:11.020Z,2.90
2024-05-09T02:55:38.599Z,3.05
2024-05-09T02:58:09.019Z,3.97
2024-05-09T03:00:39.897Z,3.40
2024-05-09T03:03:12.110Z,3.58
2024-05-09T03:05:41.331Z,2.95
2024-05-09T03:08:09.395Z,3.38
2024-05-09T03:10:38.497Z,3.42
2024-05-09T03:13:15.292Z,3.17
2024-05-09T03:18:11.518Z,2.97
2024-05-09T03:20:39.171Z,3.38
2024-05-09T03:23:08.659Z,3.53
2024-05-09T03:25:36.599Z,3.63
2024-05-09T03:28:04.076Z,3.30
2024-05-09T03:30:39.646Z,3.63
2024-05-09T03:33:15.583Z,3.80
2024-05-09T03:35:43.866Z,3.33
2024-05-09T03:38:11.212Z,3.58
2024-05-09T03:40:47.260Z,4.43
2024-05-09T03:43:14.961Z,3.13
2024-05-09T03:45:45.531Z,3.65
2024-05-09T03:48:13.328Z,3.50
2024-05-09T03:50:40.689Z,3.28
2024-05-09T03:53:10.885Z,3.42
2024-05-09T03:55:37.813Z,3.55
2024-05-09T03:58:05.338Z,3.65
2024-05-09T04:00:38.017Z,3.83
2024-05-09T04:03:09.972Z,3.60
2024-05-09T04:05:43.762Z,3.92
2024-05-09T04:08:11.857Z,3.45
2024-05-09T04:10:38.914Z,3.53
2024-05-09T04:13:06.282Z,3.78
2024-05-09T04:15:33.297Z,3.65
2024-05-09T04:18:01.630Z,3.10
2024-05-09T04:20:37.268Z,4.18
2024-05-09T04:23:08.651Z,3.85
2024-05-09T04:25:36.188Z,3.90
2024-05-09T04:28:03.796Z,3.97
2024-05-09T04:30:37.284Z,3.95
2024-05-09T04:33:09.274Z,4.05
2024-05-09T04:35:38.638Z,3.85
2024-05-09T04:38:06.560Z,3.55
2024-05-09T04:40:36.265Z,3.25
2024-05-09T04:43:15.048Z,3.83
2024-05-09T04:45:42.095Z,3.47
2024-05-09T04:48:09.496Z,3.10
2024-05-09T04:50:38.931Z,3.20
2024-05-09T04:53:09.240Z,3.03
2024-05-09T04:55:37.557Z,3.47
2024-05-09T04:58:05.608Z,3.55
2024-05-09T05:00:36.937Z,2.97
2024-05-09T05:03:13.093Z,3.00
2024-05-09T05:05:42.548Z,3.38
2024-05-09T05:08:18.065Z,3.35
2024-05-09T05:10:47.193Z,2.88
2024-05-09T05:13:23.847Z,3.50
2024-05-09T05:15:58.450Z,3.72
2024-05-09T05:18:27.721Z,3.50
2024-05-09T05:20:55.342Z,3.58
2024-05-09T05:23:22.984Z,3.60
2024-05-09T05:25:52.362Z,3.05
2024-05-09T05:28:20.124Z,3.10
2024-05-09T05:30:47.321Z,3.53
2024-05-09T05:33:15.971Z,3.13
2024-05-09T05:35:43.257Z,2.97
2024-05-09T05:38:11.283Z,3.00
2024-05-09T05:40:39.350Z,3.92
2024-05-09T05:43:09.220Z,3.20
2024-05-09T05:45:36.362Z,3.25
2024-05-09T05:48:05.759Z,3.42
2024-05-09T05:53:07.110Z,3.30
2024-05-09T05:55:34.685Z,3.28
2024-05-09T05:58:02.755Z,3.47
2024-05-09T06:00:37.317Z,2.85
2024-05-09T06:03:11.791Z,3.50
2024-05-09T06:05:46.581Z,2.97
2024-05-09T06:08:14.355Z,3.15
2024-05-09T06:10:42.086Z,3.47
2024-05-09T06:13:13.036Z,3.58
2024-05-09T06:15:41.198Z,3.08
2024-05-09T06:18:10.758Z,3.25
2024-05-09T06:20:39.862Z,2.97
2024-05-09T06:23:08.576Z,2.92
2024-05-09T06:25:36.282Z,2.75
2024-05-09T06:28:04.338Z,3.38
2024-05-09T06:30:38.728Z,3.13
2024-05-09T06:33:10.211Z,3.28
2024-05-09T06:35:38.612Z,2.78
2024-05-09T06:38:08.712Z,3.30
2024-05-09T06:40:38.622Z,3.22
2024-05-09T06:43:15.076Z,3.42
2024-05-09T06:45:43.453Z,3.40
2024-05-09T06:48:11.607Z,2.92
2024-05-09T06:50:40.061Z,3.45
2024-05-09T06:53:08.320Z,3.40
2024-05-09T06:55:36.771Z,3.03
2024-05-09T06:58:05.826Z,3.30
2024-05-09T07:03:13.294Z,2.90
2024-05-09T07:05:42.850Z,3.10
2024-05-09T07:08:10.168Z,2.83
2024-05-09T07:10:37.739Z,3.13
2024-05-09T07:13:12.052Z,3.00
2024-05-09T07:15:40.167Z,2.85
2024-05-09T07:18:16.634Z,3.85
2024-05-09T07:20:45.785Z,3.10
2024-05-09T07:23:13.114Z,3.20
2024-05-09T07:25:41.278Z,2.53
2024-05-09T07:28:15.489Z,2.83
2024-05-09T07:30:42.969Z,2.55
2024-05-09T07:33:12.204Z,2.67
2024-05-09T07:35:39.757Z,2.35
2024-05-09T07:38:06.799Z,2.50
2024-05-09T07:40:36.780Z,2.70
2024-05-09T07:43:08.389Z,2.83
2024-05-09T07:53:36.775Z,2.58
2024-05-09T07:55:56.864Z,2.70
2024-05-09T07:58:27.632Z,2.63
2024-05-09T08:00:55.413Z,2.75
2024-05-09T08:03:23.141Z,2.58
2024-05-09T08:05:51.815Z,2.58
2024-05-09T08:08:18.787Z,2.33
2024-05-09T08:10:46.452Z,2.33
2024-05-09T08:13:13.377Z,2.70
2024-05-09T08:15:41.263Z,2.78
2024-05-09T08:18:09.790Z,3.08
2024-05-09T08:20:38.255Z,2.70
2024-05-09T08:23:05.187Z,2.30
2024-05-09T08:25:32.494Z,2.25
2024-05-09T08:27:59.510Z,2.08
2024-05-09T08:30:33.472Z,2.55
2024-05-09T08:33:04.491Z,2.25
2024-05-09T08:35:32.446Z,2.30
2024-05-09T08:37:59.405Z,2.42
2024-05-09T08:40:33.965Z,2.33
2024-05-09T08:43:07.663Z,2.17
2024-05-09T08:45:36.551Z,1.98
2024-05-09T08:48:07.036Z,1.85
2024-05-09T08:50:38.639Z,1.90
2024-05-09T08:53:08.107Z,2.13
2024-05-09T08:55:40.112Z,2.17
2024-05-09T08:58:10.924Z,2.15
2024-05-09T09:00:38.970Z,2.58
2024-05-09T09:03:09.444Z,2.15
2024-05-09T09:05:39.156Z,1.80
2024-05-09T09:08:08.150Z,3.00
2024-05-09T09:10:35.862Z,1.85
2024-05-09T09:13:09.627Z,2.05
2024-05-09T09:15:58.500Z,2.08
2024-05-09T09:18:26.637Z,2.45
2024-05-09T09:20:54.709Z,1.98
2024-05-09T09:23:21.670Z,2.30
2024-05-09T09:25:48.959Z,1.73
2024-05-09T09:28:16.083Z,2.13
2024-05-09T09:30:44.719Z,1.90
2024-05-09T09:33:12.198Z,2.30
2024-05-09T09:35:40.646Z,1.90
2024-05-09T09:38:09.915Z,1.80
2024-05-09T09:40:42.910Z,2.15
2024-05-09T09:43:21.573Z,1.92
2024-05-09T09:45:55.109Z,1.90
2024-05-09T09:48:23.080Z,2.38
2024-05-09T09:50:54.455Z,2.17
2024-05-09T09:53:23.101Z,1.85
2024-05-09T09:55:51.151Z,1.73
2024-05-09T09:58:18.254Z,2.10
2024-05-09T10:00:45.994Z,1.58
2024-05-09T10:03:13.249Z,2.30
2024-05-09T10:05:43.273Z,1.98
2024-05-09T10:08:12.911Z,2.10
2024-05-09T10:10:40.304Z,2.08
2024-05-09T10:13:08.585Z,1.83
2024-05-09T10:16:12.050Z,1.83
2024-05-09T10:18:39.958Z,1.85
2024-05-09T10:21:20.355Z,1.90
2024-05-09T10:24:03.470Z,2.00
2024-05-09T10:26:34.776Z,2.10
2024-05-09T10:29:14.727Z,2.00
2024-05-09T10:31:43.312Z,1.90
2024-05-09T10:34:21.156Z,2.08
2024-05-09T10:36:52.998Z,1.85
2024-05-09T10:39:25.946Z,1.90
2024-05-09T10:41:53.255Z,2.08
2024-05-09T10:44:21.456Z,1.95
2024-05-09T10:46:50.321Z,2.25
2024-05-09T10:49:17.486Z,2.10
2024-05-09T10:51:47.149Z,1.88
2024-05-09T10:54:14.185Z,1.77
2024-05-09T10:56:42.116Z,1.88
2024-05-09T10:59:08.967Z,2.22
2024-05-09T11:01:36.699Z,2.05
2024-05-09T11:04:04.106Z,1.92
2024-05-09T11:06:31.685Z,1.92
2024-05-09T11:08:58.668Z,1.90
2024-05-09T11:11:26.438Z,1.70
2024-05-09T11:13:53.325Z,1.85
2024-05-09T11:16:21.284Z,1.80
2024-05-09T11:18:58.950Z,1.83
2024-05-09T11:21:26.907Z,1.63
2024-05-09T11:23:53.939Z,1.70
2024-05-09T11:26:22.223Z,1.75
2024-05-09T11:28:50.446Z,2.00
2024-05-09T11:31:18.143Z,1.70
2024-05-09T11:33:48.214Z,1.80
2024-05-09T11:36:16.088Z,1.90
2024-05-09T11:38:43.030Z,1.60
2024-05-09T11:41:17.185Z,1.60
2024-05-09T11:43:44.553Z,1.83
2024-05-09T11:46:11.932Z,1.88
2024-05-09T11:48:39.812Z,1.83
2024-05-09T11:51:07.219Z,1.60
2024-05-09T11:53:34.066Z,1.75
2024-05-09T11:56:01.274Z,1.60
2024-05-09T11:58:29.826Z,1.65
2024-05-09T12:00:58.018Z,1.67
2024-05-09T12:03:25.034Z,1.60
2024-05-09T12:05:52.475Z,1.55
2024-05-09T12:08:19.351Z,1.70
2024-05-09T12:10:46.851Z,1.92
2024-05-09T12:13:13.914Z,2.08
2024-05-09T12:15:42.613Z,1.30
2024-05-09T12:18:09.568Z,1.98
2024-05-09T12:20:39.406Z,1.80
2024-05-09T12:23:09.607Z,1.60
2024-05-09T12:25:39.082Z,1.83
2024-05-09T12:28:07.108Z,1.83
2024-05-09T12:30:38.635Z,1.60
2024-05-09T12:33:08.409Z,1.80
2024-05-09T12:35:35.996Z,1.60
2024-05-09T12:38:02.940Z,1.60
2024-05-09T12:40:36.138Z,1.67
2024-05-09T12:43:07.228Z,1.63
2024-05-09T12:45:35.199Z,1.83
2024-05-09T12:48:02.244Z,1.83
2024-05-09T12:50:32.880Z,1.88
2024-05-09T12:53:02.609Z,1.70
2024-05-09T12:58:11.629Z,1.65
2024-05-09T13:00:39.367Z,2.20
2024-05-09T13:03:07.472Z,1.80
2024-05-09T13:05:34.973Z,1.55
2024-05-09T13:08:03.562Z,1.52
2024-05-09T13:10:32.883Z,1.50
2024-05-09T13:13:01.431Z,2.00
2024-05-09T13:15:30.564Z,2.15
2024-05-09T13:18:00.474Z,1.65
2024-05-09T13:20:34.305Z,1.85
2024-05-09T13:23:07.947Z,1.70
2024-05-09T13:25:37.852Z,1.90
2024-05-09T13:28:06.284Z,1.88
2024-05-09T13:30:39.856Z,1.92
2024-05-09T13:33:09.991Z,1.85
2024-05-09T13:35:38.011Z,1.83
2024-05-09T13:38:05.416Z,1.90
2024-05-09T13:40:35.297Z,1.95
2024-05-09T13:43:04.910Z,2.05
2024-05-09T13:45:33.460Z,1.88
2024-05-09T13:48:01.056Z,1.75
2024-05-09T13:50:34.578Z,1.60
2024-05-09T13:53:05.804Z,2.10
2024-05-09T13:55:34.220Z,1.95
2024-05-09T13:58:01.382Z,1.83
2024-05-09T14:00:41.772Z,2.05
2024-05-09T14:03:14.440Z,1.85
2024-05-09T14:05:42.300Z,2.35
2024-05-09T14:08:09.581Z,1.88
2024-05-09T14:10:43.370Z,1.88
2024-05-09T14:13:10.625Z,1.60
2024-05-09T14:15:38.032Z,1.63
2024-05-09T14:18:05.569Z,1.95
2024-05-09T14:20:33.223Z,1.70
2024-05-09T14:23:00.938Z,2.17
2024-05-09T14:25:29.944Z,1.58
2024-05-09T14:28:00.367Z,1.98
2024-05-09T14:30:34.850Z,1.80
2024-05-09T14:33:05.925Z,2.00
2024-05-09T14:35:33.955Z,2.03
2024-05-09T14:38:00.833Z,2.05
2024-05-09T14:40:38.787Z,1.92
2024-05-09T14:43:11.044Z,1.80
2024-05-09T14:45:38.652Z,1.88
2024-05-09T14:48:06.973Z,1.88
2024-05-09T14:50:38.145Z,1.70
2024-05-09T14:53:07.821Z,1.77
2024-05-09T14:55:37.463Z,2.03
2024-05-09T15:00:41.677Z,1.90
2024-05-09T15:03:11.917Z,1.88
2024-05-09T15:05:40.214Z,1.98
2024-05-09T15:08:08.278Z,2.17
2024-05-09T15:10:37.000Z,1.90
2024-05-09T15:13:06.021Z,2.00
2024-05-09T15:15:34.735Z,1.90
2024-05-09T15:18:01.801Z,1.65
2024-05-09T15:20:34.694Z,1.85
2024-05-09T15:23:04.994Z,2.17
2024-05-09T15:25:36.555Z,2.20
2024-05-09T15:28:05.002Z,1.85
2024-05-09T15:30:33.899Z,1.98
2024-05-09T15:33:06.404Z,1.85
2024-05-09T15:35:35.571Z,1.90
2024-05-09T15:38:03.738Z,2.20
2024-05-09T15:40:38.716Z,2.30
2024-05-09T15:43:09.705Z,1.52
2024-05-09T15:45:39.307Z,1.80
2024-05-09T15:48:07.622Z,1.92
2024-05-09T15:50:39.287Z,1.98
2024-05-09T15:53:13.133Z,2.20
2024-05-09T15:55:42.254Z,2.00
2024-05-09T15:58:09.788Z,1.55
2024-05-09T16:00:41.207Z,1.83
2024-05-09T16:03:11.312Z,1.60
2024-05-09T16:05:40.743Z,1.80
2024-05-09T16:08:08.076Z,1.67
2024-05-09T16:10:37.078Z,1.90
2024-05-09T16:15:32.458Z,1.98
2024-05-09T16:18:00.328Z,2.00
2024-05-09T16:20:37.209Z,1.80
2024-05-09T16:23:08.504Z,1.80
2024-05-09T16:25:36.148Z,1.70
2024-05-09T16:28:07.433Z,1.50
2024-05-09T16:30:38.518Z,1.77
2024-05-09T16:33:06.431Z,1.55
2024-05-09T16:35:34.848Z,1.63
2024-05-09T16:38:02.834Z,1.70
2024-05-09T16:40:37.353Z,2.17
2024-05-09T16:43:08.070Z,2.03
2024-05-09T16:45:35.805Z,2.28
2024-05-09T16:48:03.236Z,1.67
2024-05-09T16:50:33.928Z,2.10
2024-05-09T16:53:05.876Z,1.90
2024-05-09T16:55:34.528Z,1.75
2024-05-09T16:58:01.997Z,1.70
2024-05-09T17:00:38.847Z,1.83
2024-05-09T17:03:10.952Z,1.88
2024-05-09T17:05:39.406Z,1.80
2024-05-09T17:08:07.208Z,1.73
2024-05-09T17:10:36.060Z,1.63
2024-05-09T17:13:04.975Z,1.85
2024-05-09T17:15:33.970Z,1.65
2024-05-09T17:18:01.516Z,2.10
2024-05-09T17:20:33.634Z,1.70
2024-05-09T17:23:04.596Z,1.80
2024-05-09T17:25:32.471Z,1.45
2024-05-09T17:28:06.366Z,1.58
2024-05-09T17:30:37.221Z,1.60
2024-05-09T17:33:08.225Z,1.67
2024-05-09T17:35:36.623Z,1.77
2024-05-09T17:38:05.044Z,1.75
2024-05-09T17:40:35.870Z,2.05
2024-05-09T17:43:05.575Z,2.50
2024-05-09T17:45:33.678Z,2.10
2024-05-09T17:48:01.167Z,2.88
2024-05-09T17:50:35.211Z,1.95
2024-05-09T17:53:05.204Z,1.83
2024-05-09T17:55:33.037Z,1.85
2024-05-09T17:58:00.232Z,1.88
2024-05-09T18:00:36.862Z,2.35
2024-05-09T18:03:08.804Z,2.33
2024-05-09T18:05:37.245Z,2.05
2024-05-09T18:08:06.383Z,1.83
2024-05-09T18:10:37.816Z,3.53
2024-05-09T18:13:08.026Z,3.05
2024-05-09T18:15:35.727Z,2.08
2024-05-09T18:18:03.651Z,1.83
2024-05-09T18:20:40.892Z,2.03
2024-05-09T18:23:11.806Z,2.20
2024-05-09T18:25:39.151Z,2.30
2024-05-09T18:28:06.635Z,2.03
2024-05-09T18:30:36.240Z,2.47
2024-05-09T18:33:06.402Z,2.53
2024-05-09T18:35:35.815Z,2.60
2024-05-09T18:38:03.208Z,2.20
2024-05-09T18:40:34.652Z,2.30
2024-05-09T18:43:05.358Z,2.90
2024-05-09T18:45:34.080Z,2.70
2024-05-09T18:48:01.305Z,2.55
2024-05-09T18:50:35.106Z,2.58
2024-05-09T18:53:06.025Z,3.53
2024-05-09T18:55:33.373Z,2.42
2024-05-09T18:58:00.425Z,2.50
2024-05-09T19:00:34.504Z,3.35
2024-05-09T19:03:08.109Z,2.50
2024-05-09T19:05:36.636Z,3.63
2024-05-09T19:08:03.786Z,4.00
2024-05-09T19:10:34.539Z,2.50
2024-05-09T19:13:07.292Z,2.95
2024-05-09T19:15:39.239Z,2.80
2024-05-09T19:18:06.767Z,3.22
2024-05-09T19:20:35.882Z,3.33
2024-05-09T19:23:04.239Z,3.40
2024-05-09T19:25:32.042Z,3.90
2024-05-09T19:27:59.731Z,2.60
2024-05-09T19:30:36.567Z,3.35
2024-05-09T19:33:08.554Z,3.08
2024-05-09T19:35:36.249Z,2.72
2024-05-09T19:38:03.419Z,2.65
2024-05-09T19:40:33.491Z,2.60
2024-05-09T19:43:02.577Z,2.80
2024-05-09T19:45:30.767Z,3.80
2024-05-09T19:47:57.873Z,3.17
2024-05-09T19:50:32.807Z,2.65
2024-05-09T19:55:35.081Z,3.30
2024-05-09T19:58:05.148Z,3.20
2024-05-09T20:00:40.522Z,2.83
2024-05-09T20:03:10.887Z,3.22
2024-05-09T20:05:38.940Z,2.75
2024-05-09T20:08:06.810Z,2.95
2024-05-09T20:10:35.793Z,2.95
2024-05-09T20:13:05.781Z,2.67
2024-05-09T20:15:35.249Z,2.92
2024-05-09T20:18:02.719Z,2.90
2024-05-09T20:20:37.396Z,3.10
2024-05-09T20:23:08.590Z,3.03
2024-05-09T20:25:35.872Z,3.03
2024-05-09T20:28:02.926Z,3.67
2024-05-09T20:30:32.958Z,3.35
2024-05-09T20:33:07.033Z,3.58
2024-05-09T20:35:35.848Z,3.33
2024-05-09T20:38:03.603Z,3.92
2024-05-09T20:40:35.559Z,3.25
2024-05-09T20:43:06.572Z,3.30
2024-05-09T20:45:34.553Z,3.58
2024-05-09T20:48:02.106Z,3.75
2024-05-09T20:50:37.169Z,3.88
2024-05-09T20:53:09.148Z,4.60
2024-05-09T20:55:36.763Z,3.90
2024-05-09T20:58:03.776Z,4.18
2024-05-09T21:00:39.259Z,3.55
2024-05-09T21:03:09.860Z,4.30
2024-05-09T21:05:37.555Z,4.05
2024-05-09T21:08:04.774Z,5.18
2024-05-09T21:10:33.864Z,3.50
2024-05-09T21:13:02.907Z,3.83
2024-05-09T21:15:31.514Z,3.60
2024-05-09T21:17:58.701Z,3.63
2024-05-09T21:20:31.277Z,3.58
2024-05-09T21:22:59.689Z,3.53
2024-05-09T21:25:27.191Z,3.70
2024-05-09T21:27:54.300Z,3.70
2024-05-09T21:30:32.404Z,3.80
2024-05-09T21:33:12.649Z,3.92
2024-05-09T21:35:42.139Z,4.18
2024-05-09T21:38:09.258Z,3.33
2024-05-09T21:40:37.952Z,3.85
2024-05-09T21:43:07.278Z,3.65
2024-05-09T21:45:35.870Z,4.32
2024-05-09T21:48:07.014Z,3.65
2024-05-09T21:50:40.088Z,3.75
2024-05-09T21:53:10.177Z,3.80
2024-05-09T21:55:37.473Z,4.05
2024-05-09T21:58:04.653Z,4.18
2024-05-09T22:00:36.687Z,3.85
2024-05-09T22:03:08.172Z,4.60
2024-05-09T22:05:37.299Z,4.55
2024-05-09T22:08:04.517Z,4.28
2024-05-09T22:10:34.862Z,4.07
2024-05-09T22:13:07.049Z,4.40
2024-05-09T22:15:36.986Z,4.43
2024-05-09T22:18:05.629Z,4.63
2024-05-09T22:20:37.422Z,4.55
2024-05-09T22:23:06.555Z,4.75
2024-05-09T22:25:34.028Z,4.78
2024-05-09T22:28:02.474Z,4.80
2024-05-09T22:32:59.866Z,4.60
2024-05-09T22:35:27.341Z,4.70
2024-05-09T22:37:54.229Z,4.72
2024-05-09T22:40:29.485Z,4.70
2024-05-09T22:43:06.086Z,4.72
2024-05-09T22:45:33.506Z,5.05
2024-05-09T22:48:00.606Z,5.13
2024-05-09T22:50:32.919Z,5.78
2024-05-09T22:53:00.554Z,5.03
2024-05-09T22:55:27.754Z,5.95
2024-05-09T22:57:54.717Z,4.82
2024-05-09T23:00:30.450Z,5.00
2024-05-09T23:03:02.260Z,5.15
2024-05-09T23:05:30.846Z,5.90
2024-05-09T23:07:58.159Z,5.53
2024-05-09T23:10:32.418Z,6.00
2024-05-09T23:13:03.930Z,5.10
2024-05-09T23:15:31.662Z,5.40
2024-05-09T23:17:59.076Z,5.22
2024-05-09T23:20:33.853Z,5.90
2024-05-09T23:23:05.926Z,5.15
2024-05-09T23:25:33.279Z,5.05
2024-05-09T23:28:00.332Z,5.30
2024-05-09T23:30:36.203Z,5.43
2024-05-09T23:33:06.560Z,4.93
2024-05-09T23:35:33.915Z,5.70
2024-05-09T23:38:00.817Z,5.25
2024-05-09T23:40:37.622Z,5.10
2024-05-09T23:43:08.448Z,4.95
2024-05-09T23:45:36.141Z,5.05
2024-05-09T23:48:03.713Z,5.13
2024-05-09T23:50:35.565Z,5.72
2024-05-09T23:53:06.182Z,4.70
2024-05-09T23:55:34.275Z,5.10
2024-05-09T23:58:01.242Z,4.95
